CheckWX is a tool to help pilots better visualize weather data.  It is not intended as a substitute for an official pre-flight weather briefing.

18:22:32 UTC

KOGD TAF
Ogden-Hinckley Airport
Ogden, Utah, USA
KOGD 201756Z 2018/2118 18008KT P6SM -SHRA BKN018 OVC040 FM210000 18006KT P6SM VCSH SCT030 BKN050 FM210900 18006KT P6SM SCT050

Sep-20@
18:00 UTC

Sep-20 @ 18:00 UTC

Sep-21@
00:00 UTC

Sep-21 @ 00:00 UTC

KOGD 201756Z 2018/2118 18008KT P6SM -SHRA BKN018 OVC040
Wind
  • 180° at 8 KTS
Conditions
Light Rain
Cloud Levels
  • Broken at 1,800' AGL
  • Overcast at 4,000' AGL

Sep-21@
00:00 UTC

Sep-21 @ 00:00 UTC

Sep-21@
09:00 UTC

Sep-21 @ 09:00 UTC

FM210000 18006KT P6SM VCSH SCT030 BKN050

From

From Standard forecast or significant change

Wind
  • 180° at 6 KTS
Cloud Levels
  • Scattered at 3,000' AGL
  • Broken at 5,000' AGL

Sep-21@
09:00 UTC

Sep-21 @ 09:00 UTC

Sep-21@
18:00 UTC

Sep-21 @ 18:00 UTC

FM210900 18006KT P6SM SCT050

From

From Standard forecast or significant change

Wind
  • 180° at 6 KTS
Cloud Levels
  • Scattered at 5,000' AGL